createdAt,value
2022-09-07T00:01:00.357Z,16.11
2022-09-07T00:04:09.582Z,16.16
2022-09-07T00:07:18.123Z,16.11
2022-09-07T00:10:27.247Z,16.05
2022-09-07T00:13:38.684Z,16.19
2022-09-07T00:16:49.300Z,16.10
2022-09-07T00:19:57.892Z,16.07
2022-09-07T00:23:06.323Z,16.12
2022-09-07T00:26:19.259Z,16.33
2022-09-07T00:29:27.556Z,16.33
2022-09-07T00:32:37.187Z,16.35
2022-09-07T00:35:46.371Z,16.47
2022-09-07T00:38:55.346Z,16.48
2022-09-07T00:42:03.541Z,16.58
2022-09-07T00:45:18.578Z,16.59
2022-09-07T00:48:37.364Z,16.65
2022-09-07T00:51:53.553Z,16.67
2022-09-07T00:55:09.766Z,16.56
2022-09-07T00:58:19.847Z,16.56
2022-09-07T01:01:28.614Z,16.50
2022-09-07T01:04:40.737Z,16.44
2022-09-07T01:07:49.498Z,16.33
2022-09-07T01:11:01.437Z,16.34
2022-09-07T01:14:16.149Z,16.37
2022-09-07T01:17:37.519Z,16.27
2022-09-07T01:21:09.226Z,16.09
2022-09-07T01:25:01.046Z,16.00
2022-09-07T01:28:20.266Z,15.96
2022-09-07T01:31:43.526Z,15.99
2022-09-07T01:34:55.756Z,15.80
2022-09-07T01:38:16.037Z,15.83
2022-09-07T01:41:32.105Z,15.79
2022-09-07T01:44:48.297Z,15.78
2022-09-07T01:48:01.511Z,15.78
2022-09-07T01:51:09.779Z,16.00
2022-09-07T01:54:28.360Z,16.01
2022-09-07T01:57:44.734Z,16.07
2022-09-07T02:01:01.874Z,16.17
2022-09-07T02:04:16.073Z,16.28
2022-09-07T02:07:31.668Z,16.11
2022-09-07T02:10:47.430Z,16.07
2022-09-07T02:14:02.220Z,16.12
2022-09-07T02:17:19.177Z,16.08
2022-09-07T02:20:34.453Z,16.07
2022-09-07T02:23:51.776Z,16.10
2022-09-07T02:27:05.107Z,16.13
2022-09-07T02:30:14.693Z,16.06
2022-09-07T02:33:24.812Z,16.10
2022-09-07T02:36:41.072Z,16.03
2022-09-07T02:39:50.164Z,16.08
2022-09-07T02:43:02.223Z,16.02
2022-09-07T02:46:31.709Z,16.11
2022-09-07T02:50:38.988Z,15.99
2022-09-07T02:54:10.554Z,16.06
2022-09-07T02:57:33.260Z,15.95
2022-09-07T03:00:56.661Z,15.85
2022-09-07T03:04:14.885Z,15.84
2022-09-07T03:07:33.560Z,15.82
2022-09-07T03:10:44.989Z,15.88
2022-09-07T03:13:53.263Z,15.91
2022-09-07T03:17:02.746Z,15.84
2022-09-07T03:20:12.138Z,15.87
2022-09-07T03:23:21.801Z,15.88
2022-09-07T03:26:30.104Z,15.92
2022-09-07T03:29:41.876Z,15.95
2022-09-07T03:32:50.495Z,16.01
2022-09-07T03:36:02.341Z,16.07
2022-09-07T03:39:14.241Z,16.11
2022-09-07T03:42:22.996Z,16.32
2022-09-07T03:45:31.239Z,16.45
2022-09-07T03:48:40.009Z,16.36
2022-09-07T03:51:48.393Z,16.27
2022-09-07T03:54:58.265Z,16.34
2022-09-07T03:58:06.814Z,16.31
2022-09-07T04:01:18.969Z,16.30
2022-09-07T04:04:27.436Z,16.44
2022-09-07T04:07:35.750Z,16.32
2022-09-07T04:10:45.384Z,16.30
2022-09-07T04:13:53.753Z,16.41
2022-09-07T04:17:02.194Z,16.37
2022-09-07T04:20:11.920Z,16.38
2022-09-07T04:23:21.036Z,16.35
2022-09-07T04:26:34.308Z,16.31
2022-09-07T04:29:42.550Z,16.33
2022-09-07T04:32:51.556Z,16.34
2022-09-07T04:36:02.251Z,16.47
2022-09-07T04:39:12.337Z,16.51
2022-09-07T04:42:22.595Z,16.52
2022-09-07T04:45:31.226Z,16.50
2022-09-07T04:48:39.798Z,16.48
2022-09-07T04:51:48.747Z,16.47
2022-09-07T04:54:57.044Z,16.47
2022-09-07T04:58:07.981Z,16.44
2022-09-07T05:01:20.032Z,16.41
2022-09-07T05:04:28.405Z,16.45
2022-09-07T05:07:37.012Z,16.53
2022-09-07T05:10:53.094Z,16.58
2022-09-07T05:14:04.915Z,16.61
2022-09-07T05:17:13.147Z,16.66
2022-09-07T05:24:11.874Z,16.70
2022-09-07T05:27:22.028Z,16.82
2022-09-07T05:37:29.425Z,16.84
2022-09-07T05:40:40.683Z,16.99
2022-09-07T05:47:21.447Z,17.17
2022-09-07T05:50:29.741Z,17.31
2022-09-07T05:53:41.953Z,17.41
2022-09-07T05:56:53.892Z,17.53
2022-09-07T06:00:02.396Z,17.57
2022-09-07T06:03:21.946Z,17.81
2022-09-07T06:06:30.489Z,18.17
2022-09-07T06:13:07.348Z,20.72
2022-09-07T06:16:18.396Z,21.40
2022-09-07T06:19:28.437Z,21.19
2022-09-07T06:22:37.619Z,20.81
2022-09-07T06:25:50.036Z,20.62
2022-09-07T06:28:59.103Z,20.33
2022-09-07T06:35:37.086Z,19.63
2022-09-07T06:38:46.979Z,19.44
2022-09-07T06:41:58.670Z,19.32
2022-09-07T06:45:12.264Z,19.37
2022-09-07T06:48:20.959Z,19.59
2022-09-07T06:51:32.018Z,21.19
2022-09-07T06:55:02.127Z,23.09
2022-09-07T06:58:10.425Z,24.30
2022-09-07T07:01:21.066Z,25.14
2022-09-07T07:04:29.412Z,25.73
2022-09-07T07:07:39.275Z,26.26
2022-09-07T07:10:47.955Z,26.81
2022-09-07T07:13:56.125Z,28.24
2022-09-07T07:17:04.764Z,28.40
2022-09-07T07:20:13.555Z,26.41
2022-09-07T07:23:23.180Z,26.09
2022-09-07T07:26:32.600Z,26.12
2022-09-07T07:29:40.739Z,26.85
2022-09-07T07:32:49.990Z,27.01
2022-09-07T07:36:13.665Z,25.77
2022-09-07T07:42:52.416Z,23.88
2022-09-07T07:46:05.440Z,23.56
2022-09-07T07:49:14.335Z,23.43
2022-09-07T07:55:52.460Z,23.50
2022-09-07T07:59:01.579Z,23.55
2022-09-07T08:02:16.959Z,23.55
2022-09-07T08:05:25.891Z,23.78
2022-09-07T08:08:34.551Z,24.37
2022-09-07T08:11:44.036Z,24.69
2022-09-07T08:14:54.049Z,24.40
2022-09-07T08:18:02.464Z,24.15
2022-09-07T08:21:15.034Z,23.87
2022-09-07T08:24:23.285Z,24.07
2022-09-07T08:27:33.150Z,23.77
2022-09-07T08:30:41.302Z,23.80
2022-09-07T08:33:52.504Z,23.79
2022-09-07T08:37:00.842Z,23.65
2022-09-07T08:40:16.770Z,24.14
2022-09-07T08:43:49.277Z,23.96
2022-09-07T08:47:04.448Z,24.28
2022-09-07T08:50:21.895Z,24.45
2022-09-07T08:53:30.792Z,24.52
2022-09-07T08:57:20.554Z,24.76
2022-09-07T09:00:17.626Z,24.87
2022-09-07T09:03:32.464Z,24.71
2022-09-07T09:06:56.637Z,24.86
2022-09-07T09:10:27.336Z,25.45
2022-09-07T09:13:52.326Z,25.37
2022-09-07T09:17:10.640Z,25.24
2022-09-07T09:20:27.495Z,25.05
2022-09-07T09:23:41.913Z,25.26
2022-09-07T09:26:57.751Z,25.55
2022-09-07T09:30:15.264Z,25.54
2022-09-07T09:33:27.435Z,25.80
2022-09-07T09:36:43.017Z,25.74
2022-09-07T09:40:02.771Z,25.69
2022-09-07T09:43:26.258Z,25.47
2022-09-07T09:46:38.723Z,25.60
2022-09-07T09:49:48.935Z,25.96
2022-09-07T09:52:59.339Z,26.13
2022-09-07T09:56:09.002Z,26.06
2022-09-07T10:06:37.347Z,25.92
2022-09-07T10:09:52.141Z,25.61
2022-09-07T10:13:00.738Z,25.11
2022-09-07T10:16:12.067Z,24.73
2022-09-07T10:19:32.631Z,25.06
2022-09-07T10:22:48.480Z,25.34
2022-09-07T10:25:59.087Z,25.76
2022-09-07T10:29:17.408Z,25.69
2022-09-07T10:32:43.235Z,25.86
2022-09-07T10:36:01.025Z,26.12
2022-09-07T10:39:18.527Z,26.45
2022-09-07T10:42:32.879Z,26.45
2022-09-07T10:46:00.129Z,26.33
2022-09-07T10:49:27.429Z,26.43
2022-09-07T10:52:49.897Z,26.49
2022-09-07T10:56:09.846Z,26.36
2022-09-07T11:03:43.643Z,26.28
2022-09-07T11:07:01.494Z,26.30
2022-09-07T11:10:28.461Z,26.43
2022-09-07T11:14:11.323Z,26.59
2022-09-07T11:17:21.635Z,27.05
2022-09-07T11:20:35.559Z,26.99
2022-09-07T11:23:51.178Z,26.66
2022-09-07T11:27:05.091Z,26.36
2022-09-07T11:30:26.240Z,26.51
2022-09-07T11:33:42.145Z,26.17
2022-09-07T11:37:02.184Z,26.36
2022-09-07T11:40:22.697Z,26.65
2022-09-07T11:43:40.597Z,26.87
2022-09-07T11:46:56.393Z,27.03
2022-09-07T11:50:05.649Z,26.75
2022-09-07T11:53:21.383Z,26.46
2022-09-07T11:56:36.972Z,26.52
2022-09-07T12:00:03.186Z,26.14
2022-09-07T12:03:39.951Z,26.02
2022-09-07T12:07:24.835Z,26.35
2022-09-07T12:11:05.538Z,26.31
2022-09-07T12:14:32.148Z,26.09
2022-09-07T12:18:02.968Z,26.39
2022-09-07T12:21:41.373Z,26.20
2022-09-07T12:24:53.230Z,26.39
2022-09-07T12:28:05.315Z,26.10
2022-09-07T12:31:14.609Z,26.09
2022-09-07T12:35:01.306Z,26.22
2022-09-07T12:39:01.007Z,26.02
2022-09-07T12:42:33.122Z,26.15
2022-09-07T12:45:55.091Z,26.34
2022-09-07T12:49:16.819Z,26.47
2022-09-07T12:52:49.698Z,26.64
2022-09-07T12:56:19.931Z,26.53
2022-09-07T12:59:53.762Z,26.30
2022-09-07T13:07:29.908Z,26.02
2022-09-07T13:10:40.776Z,26.13
2022-09-07T13:14:04.564Z,26.42
2022-09-07T13:17:55.672Z,26.67
2022-09-07T13:21:43.048Z,26.64
2022-09-07T13:24:52.783Z,26.66
2022-09-07T13:28:04.442Z,26.82
2022-09-07T13:31:45.147Z,27.08
2022-09-07T13:35:17.499Z,26.96
2022-09-07T13:38:26.425Z,27.06
2022-09-07T13:41:42.724Z,27.03
2022-09-07T13:44:57.871Z,27.17
2022-09-07T13:48:20.386Z,27.10
2022-09-07T13:51:41.956Z,27.20
2022-09-07T13:55:09.386Z,27.13
2022-09-07T13:58:22.620Z,27.10
2022-09-07T14:01:31.392Z,26.92
2022-09-07T14:04:44.390Z,26.83
2022-09-07T14:07:54.027Z,26.74
2022-09-07T14:11:02.299Z,26.68
2022-09-07T14:14:16.647Z,26.64
2022-09-07T14:17:25.209Z,26.61
2022-09-07T14:20:43.246Z,26.56
2022-09-07T14:23:53.419Z,26.54
2022-09-07T14:27:03.049Z,26.45
2022-09-07T14:30:29.741Z,26.34
2022-09-07T14:33:38.733Z,26.43
2022-09-07T14:36:48.320Z,26.38
2022-09-07T14:39:59.536Z,26.25
2022-09-07T14:43:30.071Z,26.17
2022-09-07T14:46:40.829Z,26.08
2022-09-07T14:49:53.318Z,26.01
2022-09-07T14:56:40.828Z,26.00
2022-09-07T14:59:49.935Z,26.01
2022-09-07T15:02:58.615Z,25.98
2022-09-07T15:06:09.029Z,25.83
2022-09-07T15:09:31.671Z,25.99
2022-09-07T15:12:44.080Z,25.86
2022-09-07T15:16:04.707Z,25.84
2022-09-07T15:19:33.516Z,25.91
2022-09-07T15:22:42.008Z,26.11
2022-09-07T15:25:54.106Z,25.99
2022-09-07T15:29:11.813Z,25.99
2022-09-07T15:32:20.712Z,25.91
2022-09-07T15:35:29.204Z,25.84
2022-09-07T15:45:39.822Z,25.50
2022-09-07T15:48:52.416Z,25.28
2022-09-07T15:52:07.637Z,25.11
2022-09-07T15:55:17.663Z,24.93
2022-09-07T15:58:26.273Z,24.73
2022-09-07T16:01:52.539Z,24.65
2022-09-07T16:05:01.426Z,24.75
2022-09-07T16:08:25.978Z,24.82
2022-09-07T16:11:35.288Z,24.81
2022-09-07T16:14:43.657Z,24.83
2022-09-07T16:17:53.826Z,24.84
2022-09-07T16:21:12.201Z,25.00
2022-09-07T16:24:21.025Z,24.95
2022-09-07T16:27:32.206Z,24.95
2022-09-07T16:30:42.163Z,24.90
2022-09-07T16:33:52.287Z,24.77
2022-09-07T16:37:00.473Z,24.61
2022-09-07T16:40:10.179Z,24.41
2022-09-07T16:43:19.131Z,24.16
2022-09-07T16:46:30.769Z,24.01
2022-09-07T16:49:42.732Z,23.82
2022-09-07T16:52:51.368Z,23.72
2022-09-07T16:56:03.645Z,23.47
2022-09-07T16:59:19.611Z,23.29
2022-09-07T17:02:28.012Z,23.15
2022-09-07T17:05:41.184Z,22.99
2022-09-07T17:08:49.801Z,22.83
2022-09-07T17:11:58.350Z,22.66
2022-09-07T17:15:08.380Z,22.58
2022-09-07T17:18:16.720Z,22.43
2022-09-07T17:21:26.711Z,22.27
2022-09-07T17:24:34.853Z,22.22
2022-09-07T17:27:44.087Z,22.15
2022-09-07T17:30:52.364Z,22.01
2022-09-07T17:34:00.861Z,21.91
2022-09-07T17:37:10.352Z,21.73
2022-09-07T17:40:19.248Z,21.67
2022-09-07T17:43:53.594Z,21.59
2022-09-07T17:46:55.487Z,21.53
2022-09-07T17:50:04.748Z,21.61
2022-09-07T17:53:14.650Z,21.50
2022-09-07T17:56:23.133Z,21.48
2022-09-07T18:02:59.733Z,21.34
2022-09-07T18:06:08.974Z,21.23
2022-09-07T18:09:19.757Z,21.07
2022-09-07T18:12:28.054Z,20.82
2022-09-07T18:15:41.126Z,20.67
2022-09-07T18:18:50.185Z,20.58
2022-09-07T18:21:58.357Z,20.38
2022-09-07T18:25:10.361Z,20.16
2022-09-07T18:31:46.906Z,20.04
2022-09-07T18:34:55.083Z,19.98
2022-09-07T18:38:08.164Z,19.82
2022-09-07T18:41:18.297Z,19.74
2022-09-07T18:47:59.926Z,19.54
2022-09-07T18:51:11.719Z,19.43
2022-09-07T18:54:20.803Z,19.44
2022-09-07T18:57:32.223Z,19.35
2022-09-07T19:00:46.359Z,19.36
2022-09-07T19:03:58.097Z,19.46
2022-09-07T19:07:08.571Z,19.41
2022-09-07T19:10:17.833Z,19.42
2022-09-07T19:13:27.628Z,19.28
2022-09-07T19:16:39.390Z,19.20
2022-09-07T19:19:49.338Z,19.19
2022-09-07T19:22:58.708Z,19.04
2022-09-07T19:26:10.123Z,19.04
2022-09-07T19:29:23.419Z,19.21
2022-09-07T19:32:34.114Z,19.17
2022-09-07T19:35:43.010Z,19.15
2022-09-07T19:38:52.544Z,19.28
2022-09-07T19:42:01.831Z,19.34
2022-09-07T19:45:14.289Z,19.40
2022-09-07T19:48:23.513Z,19.49
2022-09-07T19:51:36.709Z,19.36
2022-09-07T19:54:46.129Z,19.08
2022-09-07T19:57:55.388Z,18.98
2022-09-07T20:01:14.923Z,18.88
2022-09-07T20:04:26.300Z,18.80
2022-09-07T20:07:35.399Z,18.75
2022-09-07T20:10:44.413Z,18.70
2022-09-07T20:13:53.642Z,18.64
2022-09-07T20:17:04.942Z,18.70
2022-09-07T20:20:14.644Z,18.82
2022-09-07T20:23:24.117Z,18.72
2022-09-07T20:26:34.096Z,18.78
2022-09-07T20:29:43.487Z,18.68
2022-09-07T20:32:54.140Z,18.75
2022-09-07T20:36:14.738Z,18.70
2022-09-07T20:39:24.708Z,18.65
2022-09-07T20:42:33.722Z,18.78
2022-09-07T20:45:42.353Z,18.74
2022-09-07T20:48:52.790Z,18.66
2022-09-07T20:52:01.925Z,18.58
2022-09-07T20:55:12.755Z,18.40
2022-09-07T20:58:21.719Z,18.17
2022-09-07T21:01:33.683Z,18.07
2022-09-07T21:04:43.947Z,17.95
2022-09-07T21:07:52.090Z,17.96
2022-09-07T21:11:05.409Z,17.88
2022-09-07T21:14:14.658Z,17.83
2022-09-07T21:17:23.123Z,17.95
2022-09-07T21:20:33.585Z,17.89
2022-09-07T21:23:41.845Z,17.86
2022-09-07T21:26:51.762Z,17.93
2022-09-07T21:30:00.144Z,17.96
2022-09-07T21:33:08.673Z,18.12
2022-09-07T21:36:18.413Z,18.13
2022-09-07T21:39:26.638Z,18.17
2022-09-07T21:42:35.122Z,18.13
2022-09-07T21:45:43.631Z,18.02
2022-09-07T21:48:52.177Z,17.98
2022-09-07T21:52:01.855Z,17.88
2022-09-07T21:55:10.780Z,17.87
2022-09-07T21:58:19.487Z,17.95
2022-09-07T22:01:30.121Z,17.95
2022-09-07T22:04:38.601Z,17.87
2022-09-07T22:07:48.321Z,17.99
2022-09-07T22:11:04.104Z,17.92
2022-09-07T22:14:15.689Z,17.77
2022-09-07T22:17:23.783Z,17.75
2022-09-07T22:20:32.224Z,17.72
2022-09-07T22:23:45.430Z,17.76
2022-09-07T22:26:54.309Z,17.64
2022-09-07T22:30:02.977Z,17.81
2022-09-07T22:33:11.285Z,17.81
2022-09-07T22:36:22.973Z,17.84
2022-09-07T22:39:32.720Z,17.87
2022-09-07T22:42:40.919Z,17.96
2022-09-07T22:45:49.012Z,18.00
2022-09-07T22:48:59.648Z,17.93
2022-09-07T22:52:07.771Z,18.25
2022-09-07T22:55:17.630Z,18.29
2022-09-07T22:58:28.906Z,18.36
2022-09-07T23:01:38.079Z,18.26
2022-09-07T23:04:46.558Z,18.27
2022-09-07T23:07:56.009Z,18.41
2022-09-07T23:11:06.500Z,18.29
2022-09-07T23:14:19.007Z,18.11
2022-09-07T23:17:27.356Z,18.27
2022-09-07T23:20:35.823Z,18.09
2022-09-07T23:23:44.275Z,18.19
2022-09-07T23:26:54.104Z,18.10
2022-09-07T23:30:02.690Z,18.22
2022-09-07T23:33:10.957Z,18.08
2022-09-07T23:36:20.090Z,17.98
2022-09-07T23:39:28.323Z,17.81
2022-09-07T23:42:38.103Z,17.64
2022-09-07T23:45:46.518Z,17.78
2022-09-07T23:48:54.964Z,17.78
2022-09-07T23:52:03.838Z,17.90
2022-09-07T23:55:13.312Z,18.03
2022-09-07T23:58:24.538Z,18.21
